sensor_id;sensor_type;location;lat;lon;timestamp;pressure;altitude;pressure_sealevel;temperature;humidity
62617;BME280;62539;51.190;6.808;2023-11-21T00:00:00;100736.69;;;18.53;63.76
62617;BME280;62539;51.190;6.808;2023-11-21T00:02:26;100734.09;;;18.51;63.86
62617;BME280;62539;51.190;6.808;2023-11-21T00:04:52;100734.16;;;18.49;63.75
62617;BME280;62539;51.190;6.808;2023-11-21T00:07:17;100735.06;;;18.48;63.91
62617;BME280;62539;51.190;6.808;2023-11-21T00:09:43;100734.19;;;18.48;63.92
62617;BME280;62539;51.190;6.808;2023-11-21T00:12:08;100732.47;;;18.47;63.66
62617;BME280;62539;51.190;6.808;2023-11-21T00:14:37;100740.44;;;18.45;63.69
62617;BME280;62539;51.190;6.808;2023-11-21T00:17:03;100730.88;;;18.43;63.92
62617;BME280;62539;51.190;6.808;2023-11-21T00:19:29;100732.66;;;18.42;63.96
62617;BME280;62539;51.190;6.808;2023-11-21T00:21:54;100742.38;;;18.40;63.74
62617;BME280;62539;51.190;6.808;2023-11-21T00:24:20;100752.88;;;18.40;63.93
62617;BME280;62539;51.190;6.808;2023-11-21T00:26:45;100751.16;;;18.39;64.09
62617;BME280;62539;51.190;6.808;2023-11-21T00:29:11;100754.69;;;18.38;63.89
62617;BME280;62539;51.190;6.808;2023-11-21T00:31:37;100756.50;;;18.36;63.85
62617;BME280;62539;51.190;6.808;2023-11-21T00:34:03;100755.63;;;18.35;63.83
62617;BME280;62539;51.190;6.808;2023-11-21T00:36:30;100759.16;;;18.34;63.84
62617;BME280;62539;51.190;6.808;2023-11-21T00:38:57;100757.47;;;18.33;63.99
62617;BME280;62539;51.190;6.808;2023-11-21T00:41:23;100749.66;;;18.32;64.08
62617;BME280;62539;51.190;6.808;2023-11-21T00:43:48;100758.44;;;18.31;64.01
62617;BME280;62539;51.190;6.808;2023-11-21T00:46:14;100749.75;;;18.29;63.93
62617;BME280;62539;51.190;6.808;2023-11-21T00:48:39;100750.59;;;18.29;64.18
62617;BME280;62539;51.190;6.808;2023-11-21T00:51:05;100758.53;;;18.28;64.22
62617;BME280;62539;51.190;6.808;2023-11-21T00:53:31;100755.91;;;18.28;64.07
62617;BME280;62539;51.190;6.808;2023-11-21T00:55:57;100759.44;;;18.27;64.14
62617;BME280;62539;51.190;6.808;2023-11-21T00:58:25;100759.56;;;18.24;64.07
62617;BME280;62539;51.190;6.808;2023-11-21T01:00:51;100766.56;;;18.23;64.10
62617;BME280;62539;51.190;6.808;2023-11-21T01:03:16;100760.47;;;18.23;64.22
62617;BME280;62539;51.190;6.808;2023-11-21T01:05:42;100772.72;;;18.22;64.01
62617;BME280;62539;51.190;6.808;2023-11-21T01:08:07;100763.19;;;18.19;64.27
62617;BME280;62539;51.190;6.808;2023-11-21T01:10:33;100770.19;;;18.19;64.17
62617;BME280;62539;51.190;6.808;2023-11-21T01:12:59;100767.63;;;18.17;64.11
62617;BME280;62539;51.190;6.808;2023-11-21T01:15:25;100767.63;;;18.17;63.96
62617;BME280;62539;51.190;6.808;2023-11-21T01:17:51;100776.41;;;18.16;64.18
62617;BME280;62539;51.190;6.808;2023-11-21T01:20:17;100770.28;;;18.16;64.23
62617;BME280;62539;51.190;6.808;2023-11-21T01:22:43;100766.84;;;18.14;64.21
62617;BME280;62539;51.190;6.808;2023-11-21T01:25:09;100772.16;;;18.12;64.13
62617;BME280;62539;51.190;6.808;2023-11-21T01:27:36;100772.19;;;18.11;64.17
62617;BME280;62539;51.190;6.808;2023-11-21T01:30:03;100779.25;;;18.10;64.28
62617;BME280;62539;51.190;6.808;2023-11-21T01:32:29;100780.16;;;18.09;64.23
62617;BME280;62539;51.190;6.808;2023-11-21T01:34:55;100788.06;;;18.07;64.30
62617;BME280;62539;51.190;6.808;2023-11-21T01:37:21;100781.16;;;18.05;64.16
62617;BME280;62539;51.190;6.808;2023-11-21T01:39:47;100791.69;;;18.03;64.28
62617;BME280;62539;51.190;6.808;2023-11-21T01:42:13;100797.00;;;18.02;64.46
62617;BME280;62539;51.190;6.808;2023-11-21T01:44:39;100799.66;;;18.00;64.38
62617;BME280;62539;51.190;6.808;2023-11-21T01:47:08;100795.34;;;17.98;64.24
62617;BME280;62539;51.190;6.808;2023-11-21T01:49:35;100799.78;;;17.96;64.58
62617;BME280;62539;51.190;6.808;2023-11-21T01:52:01;100797.16;;;17.96;64.34
62617;BME280;62539;51.190;6.808;2023-11-21T01:54:29;100799.88;;;17.92;64.58
62617;BME280;62539;51.190;6.808;2023-11-21T01:56:58;100798.16;;;17.91;64.44
62617;BME280;62539;51.190;6.808;2023-11-21T01:59:34;100795.56;;;17.90;64.50
62617;BME280;62539;51.190;6.808;2023-11-21T02:02:04;100793.84;;;17.89;64.51
62617;BME280;62539;51.190;6.808;2023-11-21T02:04:32;100796.53;;;17.87;64.45
62617;BME280;62539;51.190;6.808;2023-11-21T02:06:59;100802.63;;;17.88;64.55
62617;BME280;62539;51.190;6.808;2023-11-21T02:09:26;100801.78;;;17.87;64.67
62617;BME280;62539;51.190;6.808;2023-11-21T02:11:53;100801.78;;;17.87;64.58
62617;BME280;62539;51.190;6.808;2023-11-21T02:14:19;100804.44;;;17.86;64.57
62617;BME280;62539;51.190;6.808;2023-11-21T02:16:50;100810.56;;;17.86;64.67
62617;BME280;62539;51.190;6.808;2023-11-21T02:19:19;100807.97;;;17.85;64.34
62617;BME280;62539;51.190;6.808;2023-11-21T02:21:49;100815.00;;;17.84;64.49
62617;BME280;62539;51.190;6.808;2023-11-21T02:24:20;100817.63;;;17.84;64.51
62617;BME280;62539;51.190;6.808;2023-11-21T02:26:47;100820.28;;;17.83;64.49
62617;BME280;62539;51.190;6.808;2023-11-21T02:29:12;100825.53;;;17.83;64.51
62617;BME280;62539;51.190;6.808;2023-11-21T02:31:39;100822.91;;;17.83;64.61
62617;BME280;62539;51.190;6.808;2023-11-21T02:34:16;100829.94;;;17.82;64.53
62617;BME280;62539;51.190;6.808;2023-11-21T02:36:43;100822.97;;;17.81;64.58
62617;BME280;62539;51.190;6.808;2023-11-21T02:39:10;100829.94;;;17.82;64.29
62617;BME280;62539;51.190;6.808;2023-11-21T02:41:37;100822.97;;;17.81;64.58
62617;BME280;62539;51.190;6.808;2023-11-21T02:44:04;100822.97;;;17.81;64.30
62617;BME280;62539;51.190;6.808;2023-11-21T02:46:34;100828.22;;;17.81;64.49
62617;BME280;62539;51.190;6.808;2023-11-21T02:49:00;100829.13;;;17.80;64.51
62617;BME280;62539;51.190;6.808;2023-11-21T02:51:31;100826.50;;;17.80;64.34
62617;BME280;62539;51.190;6.808;2023-11-21T02:53:57;100827.41;;;17.79;64.37
62617;BME280;62539;51.190;6.808;2023-11-21T02:56:26;100825.69;;;17.78;64.55
62617;BME280;62539;51.190;6.808;2023-11-21T02:58:55;100838.81;;;17.78;64.64
62617;BME280;62539;51.190;6.808;2023-11-21T03:01:20;100839.66;;;17.78;64.39
62617;BME280;62539;51.190;6.808;2023-11-21T03:03:46;100844.91;;;17.78;64.36
62617;BME280;62539;51.190;6.808;2023-11-21T03:06:16;100844.97;;;17.77;64.33
62617;BME280;62539;51.190;6.808;2023-11-21T03:08:42;100842.34;;;17.77;64.36
62617;BME280;62539;51.190;6.808;2023-11-21T03:11:08;100852.84;;;17.77;64.37
62617;BME280;62539;51.190;6.808;2023-11-21T03:13:33;100844.16;;;17.75;64.41
62617;BME280;62539;51.190;6.808;2023-11-21T03:15:58;100844.16;;;17.75;64.24
62617;BME280;62539;51.190;6.808;2023-11-21T03:18:24;100852.88;;;17.75;64.34
62617;BME280;62539;51.190;6.808;2023-11-21T03:20:52;100851.16;;;17.74;64.20
62617;BME280;62539;51.190;6.808;2023-11-21T03:23:17;100847.69;;;17.74;64.45
62617;BME280;62539;51.190;6.808;2023-11-21T03:25:43;100847.69;;;17.74;64.29
62617;BME280;62539;51.190;6.808;2023-11-21T03:28:08;100852.06;;;17.73;64.29
62617;BME280;62539;51.190;6.808;2023-11-21T03:30:34;100857.31;;;17.73;64.30
62617;BME280;62539;51.190;6.808;2023-11-21T03:32:59;100856.47;;;17.73;64.35
62617;BME280;62539;51.190;6.808;2023-11-21T03:35:25;100861.72;;;17.73;64.37
62617;BME280;62539;51.190;6.808;2023-11-21T03:37:51;100870.47;;;17.72;64.29
62617;BME280;62539;51.190;6.808;2023-11-21T03:40:16;100864.38;;;17.71;64.31
62617;BME280;62539;51.190;6.808;2023-11-21T03:42:42;100873.13;;;17.70;64.15
62617;BME280;62539;51.190;6.808;2023-11-21T03:45:08;100874.84;;;17.71;64.02
62617;BME280;62539;51.190;6.808;2023-11-21T03:47:34;100876.66;;;17.69;64.23
62617;BME280;62539;51.190;6.808;2023-11-21T03:49:59;100882.78;;;17.70;64.28
62617;BME280;62539;51.190;6.808;2023-11-21T03:52:25;100891.56;;;17.69;64.38
62617;BME280;62539;51.190;6.808;2023-11-21T03:54:50;100888.97;;;17.67;64.25
62617;BME280;62539;51.190;6.808;2023-11-21T03:57:16;100893.31;;;17.68;64.47
62617;BME280;62539;51.190;6.808;2023-11-21T03:59:42;100905.59;;;17.68;64.22
62617;BME280;62539;51.190;6.808;2023-11-21T04:02:08;100903.00;;;17.66;64.09
62617;BME280;62539;51.190;6.808;2023-11-21T04:04:35;100904.72;;;17.67;64.32
62617;BME280;62539;51.190;6.808;2023-11-21T04:07:01;100913.47;;;17.68;64.39
62617;BME280;62539;51.190;6.808;2023-11-21T04:09:27;100897.81;;;17.65;64.34
62617;BME280;62539;51.190;6.808;2023-11-21T04:11:53;100895.19;;;17.65;64.34
62617;BME280;62539;51.190;6.808;2023-11-21T04:14:18;100901.34;;;17.63;64.42
62617;BME280;62539;51.190;6.808;2023-11-21T04:16:44;100901.34;;;17.63;64.31
62617;BME280;62539;51.190;6.808;2023-11-21T04:19:10;100909.19;;;17.63;64.45
62617;BME280;62539;51.190;6.808;2023-11-21T04:21:38;100907.47;;;17.62;64.19
62617;BME280;62539;51.190;6.808;2023-11-21T04:24:04;100906.59;;;17.62;64.31
62617;BME280;62539;51.190;6.808;2023-11-21T04:26:30;100900.50;;;17.61;64.06
62617;BME280;62539;51.190;6.808;2023-11-21T04:28:55;100911.00;;;17.61;64.29
62617;BME280;62539;51.190;6.808;2023-11-21T04:31:21;100911.94;;;17.59;64.48
62617;BME280;62539;51.190;6.808;2023-11-21T04:33:46;100912.81;;;17.59;64.27
62617;BME280;62539;51.190;6.808;2023-11-21T04:36:12;100906.69;;;17.59;64.40
62617;BME280;62539;51.190;6.808;2023-11-21T04:38:37;100911.84;;;17.62;64.23
62617;BME280;62539;51.190;6.808;2023-11-21T04:41:02;100905.59;;;17.68;64.35
62617;BME280;62539;51.190;6.808;2023-11-21T04:43:28;100905.41;;;17.74;64.11
62617;BME280;62539;51.190;6.808;2023-11-21T04:45:54;100906.03;;;17.82;63.92
62617;BME280;62539;51.190;6.808;2023-11-21T04:48:20;100908.50;;;17.88;63.61
62617;BME280;62539;51.190;6.808;2023-11-21T04:50:45;100918.72;;;17.98;63.37
62617;BME280;62539;51.190;6.808;2023-11-21T04:53:11;100917.66;;;18.05;63.15
62617;BME280;62539;51.190;6.808;2023-11-21T04:55:39;100919.19;;;18.12;63.01
62617;BME280;62539;51.190;6.808;2023-11-21T04:58:09;100921.66;;;18.17;62.74
62617;BME280;62539;51.190;6.808;2023-11-21T05:00:36;100926.78;;;18.21;62.57
62617;BME280;62539;51.190;6.808;2023-11-21T05:03:02;100927.53;;;18.25;62.17
62617;BME280;62539;51.190;6.808;2023-11-21T05:05:29;100929.22;;;18.28;62.25
62617;BME280;62539;51.190;6.808;2023-11-21T05:07:55;100943.16;;;18.30;62.29
62617;BME280;62539;51.190;6.808;2023-11-21T05:10:20;100944.00;;;18.32;62.12
62617;BME280;62539;51.190;6.808;2023-11-21T05:12:47;100944.00;;;18.32;62.15
62617;BME280;62539;51.190;6.808;2023-11-21T05:15:15;100950.88;;;18.36;62.07
62617;BME280;62539;51.190;6.808;2023-11-21T05:17:42;100948.16;;;18.39;61.84
62617;BME280;62539;51.190;6.808;2023-11-21T05:20:15;100944.53;;;18.42;61.70
62617;BME280;62539;51.190;6.808;2023-11-21T05:22:45;100954.94;;;18.46;61.72
62617;BME280;62539;51.190;6.808;2023-11-21T05:25:11;100959.19;;;18.50;61.47
62617;BME280;62539;51.190;6.808;2023-11-21T05:27:37;100963.44;;;18.55;61.42
62617;BME280;62539;51.190;6.808;2023-11-21T05:30:03;100961.47;;;18.60;61.57
62617;BME280;62539;51.190;6.808;2023-11-21T05:32:37;100970.16;;;18.63;61.39
62617;BME280;62539;51.190;6.808;2023-11-21T05:35:02;100966.50;;;18.68;61.60
62617;BME280;62539;51.190;6.808;2023-11-21T05:37:28;100967.25;;;18.71;61.16
62617;BME280;62539;51.190;6.808;2023-11-21T05:39:54;100971.59;;;18.72;61.23
62617;BME280;62539;51.190;6.808;2023-11-21T05:42:22;100970.69;;;18.73;61.05
62617;BME280;62539;51.190;6.808;2023-11-21T05:44:48;100976.75;;;18.75;61.00
62617;BME280;62539;51.190;6.808;2023-11-21T05:47:14;100975.00;;;18.76;61.07
62617;BME280;62539;51.190;6.808;2023-11-21T05:49:40;100982.00;;;18.75;61.10
62617;BME280;62539;51.190;6.808;2023-11-21T05:52:05;100983.72;;;18.76;60.98
62617;BME280;62539;51.190;6.808;2023-11-21T05:54:31;100987.28;;;18.75;60.76
62617;BME280;62539;51.190;6.808;2023-11-21T05:56:58;100996.06;;;18.74;60.88
62617;BME280;62539;51.190;6.808;2023-11-21T05:59:24;100995.22;;;18.74;61.20
62617;BME280;62539;51.190;6.808;2023-11-21T06:01:49;100999.59;;;18.73;61.23
62617;BME280;62539;51.190;6.808;2023-11-21T06:04:15;101005.66;;;18.75;61.18
62617;BME280;62539;51.190;6.808;2023-11-21T06:06:40;101003.00;;;18.77;61.58
62617;BME280;62539;51.190;6.808;2023-11-21T06:09:06;101009.91;;;18.79;61.55
62617;BME280;62539;51.190;6.808;2023-11-21T06:11:34;101017.72;;;18.83;61.50
62617;BME280;62539;51.190;6.808;2023-11-21T06:13:59;101016.81;;;18.84;62.27
62617;BME280;62539;51.190;6.808;2023-11-21T06:16:25;101026.31;;;18.88;62.02
62617;BME280;62539;51.190;6.808;2023-11-21T06:18:50;101021.06;;;18.88;60.63
62617;BME280;62539;51.190;6.808;2023-11-21T06:21:16;101027.19;;;18.88;61.29
62617;BME280;62539;51.190;6.808;2023-11-21T06:23:43;101028.91;;;18.89;60.96
62617;BME280;62539;51.190;6.808;2023-11-21T06:26:08;101033.19;;;18.92;61.21
62617;BME280;62539;51.190;6.808;2023-11-21T06:28:34;101031.38;;;18.94;61.03
62617;BME280;62539;51.190;6.808;2023-11-21T06:31:01;101037.44;;;18.96;60.88
62617;BME280;62539;51.190;6.808;2023-11-21T06:33:31;101044.34;;;19.00;60.72
62617;BME280;62539;51.190;6.808;2023-11-21T06:35:57;101043.34;;;19.04;60.69
62617;BME280;62539;51.190;6.808;2023-11-21T06:38:23;101049.38;;;19.08;60.68
62617;BME280;62539;51.190;6.808;2023-11-21T06:40:48;101055.38;;;19.12;61.16
62617;BME280;62539;51.190;6.808;2023-11-21T06:43:14;101049.19;;;19.14;60.83
62617;BME280;62539;51.190;6.808;2023-11-21T06:45:40;101052.53;;;19.19;60.63
62617;BME280;62539;51.190;6.808;2023-11-21T06:48:05;101056.88;;;19.20;60.99
62617;BME280;62539;51.190;6.808;2023-11-21T06:50:31;101059.53;;;19.19;60.71
62617;BME280;62539;51.190;6.808;2023-11-21T06:52:56;101066.69;;;19.15;60.21
62617;BME280;62539;51.190;6.808;2023-11-21T06:55:22;101069.72;;;19.01;56.71
62617;BME280;62539;51.190;6.808;2023-11-21T06:57:47;101068.38;;;18.88;56.10
62617;BME280;62539;51.190;6.808;2023-11-21T07:00:15;101081.69;;;18.81;56.08
62617;BME280;62539;51.190;6.808;2023-11-21T07:02:43;101079.97;;;18.80;56.17
62617;BME280;62539;51.190;6.808;2023-11-21T07:05:09;101084.31;;;18.81;56.15
62617;BME280;62539;51.190;6.808;2023-11-21T07:07:34;101086.03;;;18.83;56.48
62617;BME280;62539;51.190;6.808;2023-11-21T07:10:01;101087.78;;;18.84;56.53
62617;BME280;62539;51.190;6.808;2023-11-21T07:12:28;101101.72;;;18.86;56.69
62617;BME280;62539;51.190;6.808;2023-11-21T07:14:57;101099.91;;;18.88;56.80
62617;BME280;62539;51.190;6.808;2023-11-21T07:17:23;101102.50;;;18.89;56.85
62617;BME280;62539;51.190;6.808;2023-11-21T07:19:49;101109.47;;;18.90;56.99
62617;BME280;62539;51.190;6.808;2023-11-21T07:22:15;101114.75;;;18.90;57.35
62617;BME280;62539;51.190;6.808;2023-11-21T07:24:48;101126.97;;;18.91;57.56
62617;BME280;62539;51.190;6.808;2023-11-21T07:27:15;101126.91;;;18.93;57.77
62617;BME280;62539;51.190;6.808;2023-11-21T07:29:41;101127.75;;;18.97;57.67
62617;BME280;62539;51.190;6.808;2023-11-21T07:32:07;101133.75;;;19.00;57.68
62617;BME280;62539;51.190;6.808;2023-11-21T07:34:34;101127.53;;;19.03;58.01
62617;BME280;62539;51.190;6.808;2023-11-21T07:36:59;101133.53;;;19.08;58.24
62617;BME280;62539;51.190;6.808;2023-11-21T07:39:25;101124.63;;;19.12;58.12
62617;BME280;62539;51.190;6.808;2023-11-21T07:41:50;101127.09;;;19.17;58.10
62617;BME280;62539;51.190;6.808;2023-11-21T07:44:16;101128.72;;;19.21;58.13
62617;BME280;62539;51.190;6.808;2023-11-21T07:46:45;101123.38;;;19.24;58.00
62617;BME280;62539;51.190;6.808;2023-11-21T07:49:12;101123.28;;;19.27;57.82
62617;BME280;62539;51.190;6.808;2023-11-21T07:51:41;101127.63;;;19.28;57.89
62617;BME280;62539;51.190;6.808;2023-11-21T07:54:07;101126.72;;;19.29;57.98
62617;BME280;62539;51.190;6.808;2023-11-21T07:56:32;101129.31;;;19.31;57.92
62617;BME280;62539;51.190;6.808;2023-11-21T07:58:58;101137.19;;;19.31;58.00
62617;BME280;62539;51.190;6.808;2023-11-21T08:01:23;101141.59;;;19.30;57.99
62617;BME280;62539;51.190;6.808;2023-11-21T08:03:49;101152.09;;;19.30;58.04
62617;BME280;62539;51.190;6.808;2023-11-21T08:06:17;101150.38;;;19.29;58.02
62617;BME280;62539;51.190;6.808;2023-11-21T08:08:42;101160.97;;;19.28;58.18
62617;BME280;62539;51.190;6.808;2023-11-21T08:11:08;101170.63;;;19.27;58.34
62617;BME280;62539;51.190;6.808;2023-11-21T08:13:35;101174.16;;;19.26;58.21
62617;BME280;62539;51.190;6.808;2023-11-21T08:16:01;101177.59;;;19.28;58.30
62617;BME280;62539;51.190;6.808;2023-11-21T08:18:28;101184.59;;;19.29;58.30
62617;BME280;62539;51.190;6.808;2023-11-21T08:20:55;101181.00;;;19.32;58.26
62617;BME280;62539;51.190;6.808;2023-11-21T08:23:20;101194.88;;;19.37;58.09
62617;BME280;62539;51.190;6.808;2023-11-21T08:25:50;101193.00;;;19.41;58.36
62617;BME280;62539;51.190;6.808;2023-11-21T08:28:16;101196.34;;;19.46;58.13
62617;BME280;62539;51.190;6.808;2023-11-21T08:30:41;101211.13;;;19.50;58.05
62617;BME280;62539;51.190;6.808;2023-11-21T08:33:07;101211.94;;;19.52;58.15
62617;BME280;62539;51.190;6.808;2023-11-21T08:35:34;101215.38;;;19.54;58.10
62617;BME280;62539;51.190;6.808;2023-11-21T08:38:02;101215.38;;;19.54;57.98
62617;BME280;62539;51.190;6.808;2023-11-21T08:40:28;101223.28;;;19.54;57.90
62617;BME280;62539;51.190;6.808;2023-11-21T08:42:54;101214.56;;;19.52;57.96
62617;BME280;62539;51.190;6.808;2023-11-21T08:45:21;101219.81;;;19.53;58.10
62617;BME280;62539;51.190;6.808;2023-11-21T08:47:47;101221.53;;;19.54;58.14
62617;BME280;62539;51.190;6.808;2023-11-21T08:50:13;101225.00;;;19.55;57.78
62617;BME280;62539;51.190;6.808;2023-11-21T08:52:40;101230.34;;;19.53;57.99
62617;BME280;62539;51.190;6.808;2023-11-21T08:55:07;101232.19;;;19.50;58.08
62617;BME280;62539;51.190;6.808;2023-11-21T08:57:36;101236.63;;;19.48;58.19
62617;BME280;62539;51.190;6.808;2023-11-21T09:00:06;101248.06;;;19.47;58.38
62617;BME280;62539;51.190;6.808;2023-11-21T09:02:41;101241.84;;;19.49;58.22
62617;BME280;62539;51.190;6.808;2023-11-21T09:05:10;101249.69;;;19.51;58.14
62617;BME280;62539;51.190;6.808;2023-11-21T09:07:36;101246.06;;;19.55;58.16
62617;BME280;62539;51.190;6.808;2023-11-21T09:10:04;101248.59;;;19.58;58.18
62617;BME280;62539;51.190;6.808;2023-11-21T09:12:33;101254.63;;;19.62;58.03
62617;BME280;62539;51.190;6.808;2023-11-21T09:15:00;101254.47;;;19.66;58.06
62617;BME280;62539;51.190;6.808;2023-11-21T09:17:27;101254.44;;;19.68;58.09
62617;BME280;62539;51.190;6.808;2023-11-21T09:19:52;101266.63;;;19.71;57.75
62617;BME280;62539;51.190;6.808;2023-11-21T09:22:18;101270.06;;;19.73;57.70
62617;BME280;62539;51.190;6.808;2023-11-21T09:24:43;101263.91;;;19.74;57.76
62617;BME280;62539;51.190;6.808;2023-11-21T09:27:09;101269.16;;;19.74;57.74
62617;BME280;62539;51.190;6.808;2023-11-21T09:29:35;101264.72;;;19.76;57.72
62617;BME280;62539;51.190;6.808;2023-11-21T09:32:03;101277.88;;;19.76;57.72
62617;BME280;62539;51.190;6.808;2023-11-21T09:34:32;101271.75;;;19.75;57.75
62617;BME280;62539;51.190;6.808;2023-11-21T09:36:58;101281.41;;;19.75;57.84
62617;BME280;62539;51.190;6.808;2023-11-21T09:39:24;101280.56;;;19.74;57.95
62617;BME280;62539;51.190;6.808;2023-11-21T09:41:51;101284.97;;;19.74;57.77
62617;BME280;62539;51.190;6.808;2023-11-21T09:44:34;101284.13;;;19.73;57.90
62617;BME280;62539;51.190;6.808;2023-11-21T09:47:02;101291.94;;;19.75;57.94
62617;BME280;62539;51.190;6.808;2023-11-21T09:49:28;101295.41;;;19.77;57.88
62617;BME280;62539;51.190;6.808;2023-11-21T09:52:01;101300.56;;;19.80;57.67
62617;BME280;62539;51.190;6.808;2023-11-21T09:54:28;101302.25;;;19.82;57.81
62617;BME280;62539;51.190;6.808;2023-11-21T09:56:57;101303.91;;;19.85;57.57
62617;BME280;62539;51.190;6.808;2023-11-21T09:59:25;101297.66;;;19.89;57.40
62617;BME280;62539;51.190;6.808;2023-11-21T10:01:56;101297.63;;;19.91;57.48
62617;BME280;62539;51.190;6.808;2023-11-21T10:04:23;101300.28;;;19.91;57.45
62617;BME280;62539;51.190;6.808;2023-11-21T10:06:50;101306.34;;;19.93;57.30
62617;BME280;62539;51.190;6.808;2023-11-21T10:09:17;101308.06;;;19.94;57.44
62617;BME280;62539;51.190;6.808;2023-11-21T10:11:45;101303.75;;;19.91;57.48
62617;BME280;62539;51.190;6.808;2023-11-21T10:14:12;101304.66;;;19.90;57.69
62617;BME280;62539;51.190;6.808;2023-11-21T10:16:40;101305.56;;;19.89;57.60
62617;BME280;62539;51.190;6.808;2023-11-21T10:19:10;101304.72;;;19.87;57.59
62617;BME280;62539;51.190;6.808;2023-11-21T10:21:36;101305.69;;;19.85;57.30
62617;BME280;62539;51.190;6.808;2023-11-21T10:24:04;101304.88;;;19.82;57.62
62617;BME280;62539;51.190;6.808;2023-11-21T10:26:32;101307.56;;;19.81;57.63
62617;BME280;62539;51.190;6.808;2023-11-21T10:28:59;101304.91;;;19.81;57.75
62617;BME280;62539;51.190;6.808;2023-11-21T10:31:29;101303.97;;;19.83;57.59
62617;BME280;62539;51.190;6.808;2023-11-21T10:34:17;101310.97;;;19.85;57.66
62617;BME280;62539;51.190;6.808;2023-11-21T10:36:43;101310.06;;;19.86;57.63
62617;BME280;62539;51.190;6.808;2023-11-21T10:39:16;101312.59;;;19.89;57.73
62617;BME280;62539;51.190;6.808;2023-11-21T10:41:47;101324.81;;;19.91;57.73
62617;BME280;62539;51.190;6.808;2023-11-21T10:44:16;101320.44;;;19.92;57.31
62617;BME280;62539;51.190;6.808;2023-11-21T10:46:48;101316.91;;;19.91;57.57
62617;BME280;62539;51.190;6.808;2023-11-21T10:49:20;101319.63;;;19.88;57.68
62617;BME280;62539;51.190;6.808;2023-11-21T10:51:46;101324.06;;;19.86;57.62
62617;BME280;62539;51.190;6.808;2023-11-21T10:54:18;101329.41;;;19.85;57.67
62617;BME280;62539;51.190;6.808;2023-11-21T10:57:00;101333.78;;;19.84;57.54
62617;BME280;62539;51.190;6.808;2023-11-21T10:59:30;101334.69;;;19.83;57.74
62617;BME280;62539;51.190;6.808;2023-11-21T11:01:57;101330.34;;;19.82;57.63
62617;BME280;62539;51.190;6.808;2023-11-21T11:04:25;101332.13;;;19.81;57.51
62617;BME280;62539;51.190;6.808;2023-11-21T11:06:55;101330.41;;;19.80;57.87
62617;BME280;62539;51.190;6.808;2023-11-21T11:09:23;101338.28;;;19.80;57.70
62617;BME280;62539;51.190;6.808;2023-11-21T11:11:50;101339.16;;;19.81;57.75
62617;BME280;62539;51.190;6.808;2023-11-21T11:14:18;101343.50;;;19.82;57.94
62617;BME280;62539;51.190;6.808;2023-11-21T11:16:44;101351.31;;;19.85;57.90
62617;BME280;62539;51.190;6.808;2023-11-21T11:19:10;101356.47;;;19.88;57.81
62617;BME280;62539;51.190;6.808;2023-11-21T11:21:47;101349.44;;;19.90;57.71
62617;BME280;62539;51.190;6.808;2023-11-21T11:27:54;101354.66;;;19.92;57.60
62617;BME280;62539;51.190;6.808;2023-11-21T11:36:22;101349.47;;;19.87;57.65
62617;BME280;62539;51.190;6.808;2023-11-21T11:38:53;101354.84;;;19.84;57.88
62617;BME280;62539;51.190;6.808;2023-11-21T11:41:25;101357.56;;;19.81;57.70
62617;BME280;62539;51.190;6.808;2023-11-21T11:43:53;101355.81;;;19.81;57.78
62617;BME280;62539;51.190;6.808;2023-11-21T11:46:19;101359.25;;;19.83;57.64
62617;BME280;62539;51.190;6.808;2023-11-21T11:48:49;101365.38;;;19.84;57.82
62617;BME280;62539;51.190;6.808;2023-11-21T11:51:28;101359.19;;;19.85;57.58
62617;BME280;62539;51.190;6.808;2023-11-21T11:53:54;101360.88;;;19.89;57.48
62617;BME280;62539;51.190;6.808;2023-11-21T11:56:29;101351.88;;;19.96;57.38
62617;BME280;62539;51.190;6.808;2023-11-21T11:58:58;101356.03;;;20.04;57.41
62617;BME280;62539;51.190;6.808;2023-11-21T12:01:27;101353.09;;;20.13;57.02
62617;BME280;62539;51.190;6.808;2023-11-21T12:06:45;101356.22;;;20.26;56.67
62617;BME280;62539;51.190;6.808;2023-11-21T12:09:21;101366.47;;;20.35;56.28
62617;BME280;62539;51.190;6.808;2023-11-21T12:11:49;101364.22;;;20.50;56.02
62617;BME280;62539;51.190;6.808;2023-11-21T12:14:15;101369.09;;;20.62;55.59
62617;BME280;62539;51.190;6.808;2023-11-21T12:16:42;101369.63;;;20.72;55.19
62617;BME280;62539;51.190;6.808;2023-11-21T12:19:10;101372.91;;;20.80;55.26
62617;BME280;62539;51.190;6.808;2023-11-21T12:21:36;101369.72;;;20.69;55.25
62617;BME280;62539;51.190;6.808;2023-11-21T12:24:02;101373.59;;;20.59;55.76
62617;BME280;62539;51.190;6.808;2023-11-21T12:26:28;101371.97;;;20.54;55.98
62617;BME280;62539;51.190;6.808;2023-11-21T12:28:54;101366.69;;;20.54;55.73
62617;BME280;62539;51.190;6.808;2023-11-21T12:31:21;101365.25;;;20.46;55.84
62617;BME280;62539;51.190;6.808;2023-11-21T12:33:47;101375.94;;;20.41;55.94
62617;BME280;62539;51.190;6.808;2023-11-21T12:36:12;101375.19;;;20.37;56.01
62617;BME280;62539;51.190;6.808;2023-11-21T12:38:38;101382.38;;;20.32;56.38
62617;BME280;62539;51.190;6.808;2023-11-21T12:41:03;101387.66;;;20.31;56.45
62617;BME280;62539;51.190;6.808;2023-11-21T12:43:30;101391.28;;;20.28;56.32
62617;BME280;62539;51.190;6.808;2023-11-21T12:46:06;101389.47;;;20.30;56.52
62617;BME280;62539;51.190;6.808;2023-11-21T12:48:33;101397.19;;;20.35;56.30
62617;BME280;62539;51.190;6.808;2023-11-21T12:50:58;101395.28;;;20.40;56.19
62617;BME280;62539;51.190;6.808;2023-11-21T12:53:26;101395.28;;;20.40;56.32
62617;BME280;62539;51.190;6.808;2023-11-21T12:55:51;101392.63;;;20.41;56.29
62617;BME280;62539;51.190;6.808;2023-11-21T12:58:21;101383.03;;;20.39;55.42
62617;BME280;62539;51.190;6.808;2023-11-21T13:00:50;101395.53;;;20.32;55.10